createdAt,value
2022-08-20T00:02:16.960Z,20.10
2022-08-20T00:04:45.930Z,20.10
2022-08-20T00:07:15.554Z,20.10
2022-08-20T00:09:45.054Z,20.00
2022-08-20T00:12:18.198Z,20.10
2022-08-20T00:14:46.550Z,20.00
2022-08-20T00:17:14.869Z,20.10
2022-08-20T00:19:43.310Z,20.00
2022-08-20T00:22:11.659Z,20.00
2022-08-20T00:24:40.274Z,19.90
2022-08-20T00:27:09.287Z,19.90
2022-08-20T00:29:38.927Z,19.90
2022-08-20T00:32:07.801Z,19.90
2022-08-20T00:34:36.081Z,19.90
2022-08-20T00:37:04.559Z,19.90
2022-08-20T00:39:32.876Z,19.90
2022-08-20T00:42:01.627Z,19.90
2022-08-20T00:44:30.450Z,19.90
2022-08-20T00:47:00.748Z,19.90
2022-08-20T00:49:33.103Z,19.90
2022-08-20T00:52:07.679Z,19.80
2022-08-20T00:54:42.769Z,19.80
2022-08-20T00:57:20.316Z,19.80
2022-08-20T00:59:52.404Z,19.80
2022-08-20T01:02:27.563Z,19.80
2022-08-20T01:04:56.703Z,19.80
2022-08-20T01:07:32.559Z,19.80
2022-08-20T01:10:03.670Z,19.80
2022-08-20T01:12:32.416Z,19.80
2022-08-20T01:15:03.898Z,19.80
2022-08-20T01:17:37.646Z,19.80
2022-08-20T01:20:12.203Z,19.70
2022-08-20T01:23:08.965Z,19.60
2022-08-20T01:25:50.524Z,19.60
2022-08-20T01:28:25.551Z,19.60
2022-08-20T01:30:54.841Z,19.50
2022-08-20T01:33:25.378Z,19.50
2022-08-20T01:35:54.947Z,19.50
2022-08-20T01:38:24.319Z,19.50
2022-08-20T01:41:12.107Z,19.50
2022-08-20T01:43:41.865Z,19.60
2022-08-20T01:46:11.644Z,19.60
2022-08-20T01:48:41.453Z,19.70
2022-08-20T01:51:14.947Z,19.60
2022-08-20T01:53:49.215Z,19.60
2022-08-20T01:56:25.666Z,19.60
2022-08-20T01:58:59.126Z,19.60
2022-08-20T02:01:35.421Z,19.60
2022-08-20T02:04:18.020Z,19.60
2022-08-20T02:06:56.823Z,19.60
2022-08-20T02:09:27.178Z,19.50
2022-08-20T02:11:57.527Z,19.50
2022-08-20T02:14:27.159Z,19.50
2022-08-20T02:16:58.332Z,19.50
2022-08-20T02:19:34.182Z,19.50
2022-08-20T02:22:15.914Z,19.50
2022-08-20T02:24:44.606Z,19.60
2022-08-20T02:27:15.017Z,19.60
2022-08-20T02:29:43.843Z,19.60
2022-08-20T02:32:32.351Z,19.60
2022-08-20T02:35:03.104Z,19.60
2022-08-20T02:37:32.250Z,19.60
2022-08-20T02:40:00.986Z,19.60
2022-08-20T02:42:31.263Z,19.60
2022-08-20T02:45:00.107Z,19.60
2022-08-20T02:47:29.339Z,19.60
2022-08-20T02:49:59.481Z,19.60
2022-08-20T02:52:27.786Z,19.60
2022-08-20T02:54:56.083Z,19.60
2022-08-20T02:57:24.518Z,19.60
2022-08-20T02:59:54.237Z,19.50
2022-08-20T03:02:22.555Z,19.50
2022-08-20T03:04:50.942Z,19.50
2022-08-20T03:07:19.499Z,19.60
2022-08-20T03:09:47.788Z,19.50
2022-08-20T03:12:16.556Z,19.50
2022-08-20T03:14:45.166Z,19.50
2022-08-20T03:17:14.998Z,19.50
2022-08-20T03:19:43.393Z,19.50
2022-08-20T03:22:11.737Z,19.50
2022-08-20T03:24:40.293Z,19.50
2022-08-20T03:27:09.172Z,19.50
2022-08-20T03:29:37.471Z,19.50
2022-08-20T03:32:07.759Z,19.50
2022-08-20T03:34:37.801Z,19.60
2022-08-20T03:37:06.504Z,19.50
2022-08-20T03:39:35.191Z,19.50
2022-08-20T03:42:03.600Z,19.50
2022-08-20T03:44:32.051Z,19.40
2022-08-20T03:47:00.507Z,19.40
2022-08-20T03:49:29.374Z,19.30
2022-08-20T03:51:59.832Z,19.30
2022-08-20T03:54:31.812Z,19.30
2022-08-20T03:57:02.672Z,19.30
2022-08-20T03:59:32.937Z,19.20
2022-08-20T04:02:01.610Z,19.20
2022-08-20T04:04:29.925Z,19.10
2022-08-20T04:07:00.307Z,19.00
2022-08-20T04:09:30.037Z,19.00
2022-08-20T04:12:01.071Z,19.00
2022-08-20T04:14:30.098Z,18.90
2022-08-20T04:16:59.095Z,18.90
2022-08-20T04:19:32.434Z,18.90
2022-08-20T04:22:04.678Z,18.80
2022-08-20T04:24:33.750Z,18.70
2022-08-20T04:27:04.326Z,18.70
2022-08-20T04:29:35.492Z,18.70
2022-08-20T04:32:05.999Z,18.70
2022-08-20T04:34:36.855Z,18.70
2022-08-20T04:37:16.687Z,18.70
2022-08-20T04:40:06.271Z,18.60
2022-08-20T04:42:36.551Z,18.60
2022-08-20T04:45:08.605Z,18.60
2022-08-20T04:47:36.935Z,18.60
2022-08-20T04:50:09.258Z,18.60
2022-08-20T04:52:40.949Z,18.60
2022-08-20T04:55:11.279Z,18.70
2022-08-20T04:57:39.780Z,18.70
2022-08-20T05:00:14.176Z,18.70
2022-08-20T05:02:42.944Z,18.80
2022-08-20T05:05:13.081Z,18.90
2022-08-20T05:07:45.755Z,19.00
2022-08-20T05:10:18.277Z,19.10
2022-08-20T05:12:56.451Z,19.10
2022-08-20T05:15:26.285Z,19.20
2022-08-20T05:18:00.460Z,19.30
2022-08-20T05:20:32.591Z,19.40
2022-08-20T05:23:04.088Z,19.60
2022-08-20T05:25:32.848Z,19.80
2022-08-20T05:28:07.483Z,20.00
2022-08-20T05:30:37.117Z,20.10
2022-08-20T05:33:08.931Z,20.30
2022-08-20T05:35:39.698Z,20.40
2022-08-20T05:38:13.971Z,20.50
2022-08-20T05:40:43.660Z,20.60
2022-08-20T05:43:12.269Z,20.80
2022-08-20T05:45:43.273Z,20.80
2022-08-20T05:48:16.759Z,20.90
2022-08-20T05:50:50.393Z,21.00
2022-08-20T05:53:21.899Z,21.20
2022-08-20T05:55:50.386Z,21.30
2022-08-20T05:58:23.491Z,21.50
2022-08-20T06:00:53.984Z,21.70
2022-08-20T06:03:52.718Z,21.90
2022-08-20T06:06:44.659Z,22.10
2022-08-20T06:09:11.083Z,22.30
2022-08-20T06:11:40.001Z,22.60
2022-08-20T06:14:08.828Z,22.70
2022-08-20T06:16:37.784Z,22.90
2022-08-20T06:19:06.839Z,23.00
2022-08-20T06:21:41.306Z,23.00
2022-08-20T06:24:11.021Z,23.00
2022-08-20T06:26:39.321Z,23.00
2022-08-20T06:29:07.669Z,23.00
2022-08-20T06:31:39.778Z,23.00
2022-08-20T06:34:08.374Z,23.00
2022-08-20T06:36:36.687Z,23.10
2022-08-20T06:39:05.714Z,23.10
2022-08-20T06:41:36.085Z,23.10
2022-08-20T06:44:07.442Z,23.10
2022-08-20T06:46:36.159Z,23.10
2022-08-20T06:49:06.133Z,23.10
2022-08-20T06:51:34.703Z,23.00
2022-08-20T06:54:03.172Z,23.00
2022-08-20T06:56:31.767Z,23.00
2022-08-20T06:59:02.889Z,23.00
2022-08-20T07:01:31.227Z,23.10
2022-08-20T07:04:00.336Z,23.10
2022-08-20T07:06:29.207Z,23.30
2022-08-20T07:08:57.885Z,23.40
2022-08-20T07:11:28.532Z,23.50
2022-08-20T07:13:58.106Z,23.70
2022-08-20T07:16:28.303Z,23.60
2022-08-20T07:18:56.632Z,23.70
2022-08-20T07:21:25.614Z,23.70
2022-08-20T07:23:53.907Z,23.80
2022-08-20T07:26:23.145Z,23.70
2022-08-20T07:28:51.666Z,23.60
2022-08-20T07:31:37.757Z,23.50
2022-08-20T07:34:08.279Z,23.60
2022-08-20T07:36:36.554Z,23.70
2022-08-20T07:39:06.465Z,23.80
2022-08-20T07:41:35.699Z,23.90
2022-08-20T07:44:04.766Z,24.00
2022-08-20T07:46:33.719Z,24.10
2022-08-20T07:49:04.165Z,24.30
2022-08-20T07:51:34.275Z,24.30
2022-08-20T07:54:02.861Z,24.20
2022-08-20T07:56:31.917Z,24.10
2022-08-20T07:59:02.263Z,24.10
2022-08-20T08:01:33.195Z,24.10
2022-08-20T08:04:01.619Z,24.00
2022-08-20T08:06:32.909Z,24.10
2022-08-20T08:09:06.388Z,24.10
2022-08-20T08:11:39.366Z,24.20
2022-08-20T08:14:11.673Z,24.20
2022-08-20T08:16:40.005Z,24.20
2022-08-20T08:19:11.883Z,24.20
2022-08-20T08:21:44.162Z,24.20
2022-08-20T08:24:16.794Z,24.30
2022-08-20T08:26:50.466Z,24.40
2022-08-20T08:29:19.274Z,24.50
2022-08-20T08:31:47.991Z,24.50
2022-08-20T08:34:16.826Z,24.70
2022-08-20T08:36:46.780Z,24.90
2022-08-20T08:39:15.082Z,25.10
2022-08-20T08:41:49.426Z,25.20
2022-08-20T08:44:23.321Z,25.20
2022-08-20T08:46:57.600Z,25.30
2022-08-20T08:49:37.481Z,25.30
2022-08-20T08:52:17.330Z,25.40
2022-08-20T08:55:00.411Z,25.30
2022-08-20T08:57:30.114Z,25.50
2022-08-20T09:00:04.194Z,25.50
2022-08-20T09:02:36.222Z,25.20
2022-08-20T09:05:14.591Z,25.30
2022-08-20T09:07:53.291Z,25.60
2022-08-20T09:10:23.500Z,26.10
2022-08-20T09:12:52.606Z,26.20
2022-08-20T09:15:22.162Z,26.40
2022-08-20T09:17:50.992Z,26.60
2022-08-20T09:20:20.194Z,26.70
2022-08-20T09:22:55.825Z,26.60
2022-08-20T09:25:25.215Z,26.80
2022-08-20T09:27:53.877Z,26.30
2022-08-20T09:30:23.290Z,26.00
2022-08-20T09:32:55.008Z,25.90
2022-08-20T09:35:23.493Z,26.20
2022-08-20T09:37:52.745Z,26.30
2022-08-20T09:40:23.379Z,25.90
2022-08-20T09:42:51.934Z,25.70
2022-08-20T09:45:21.021Z,25.30
2022-08-20T09:48:04.846Z,25.20
2022-08-20T09:50:45.090Z,25.30
2022-08-20T09:53:19.054Z,25.40
2022-08-20T09:55:53.972Z,25.30
2022-08-20T09:58:31.818Z,25.40
2022-08-20T10:01:04.414Z,25.60
2022-08-20T10:03:33.027Z,25.70
2022-08-20T10:06:01.439Z,25.80
2022-08-20T10:08:30.826Z,25.80
2022-08-20T10:11:00.983Z,25.70
2022-08-20T10:13:29.878Z,25.60
2022-08-20T10:15:58.553Z,25.60
2022-08-20T10:18:27.249Z,25.50
2022-08-20T10:20:55.545Z,25.40
2022-08-20T10:23:24.207Z,25.30
2022-08-20T10:25:52.529Z,25.10
2022-08-20T10:28:22.490Z,25.00
2022-08-20T10:30:50.939Z,24.80
2022-08-20T10:33:21.256Z,24.60
2022-08-20T10:35:49.554Z,24.40
2022-08-20T10:38:19.362Z,24.10
2022-08-20T10:40:52.229Z,24.10
2022-08-20T10:43:22.591Z,24.10
2022-08-20T10:45:52.629Z,24.10
2022-08-20T10:48:21.824Z,24.00
2022-08-20T10:50:50.549Z,23.90
2022-08-20T10:53:19.815Z,23.70
2022-08-20T10:55:48.430Z,23.60
2022-08-20T10:58:16.855Z,23.50
2022-08-20T11:00:47.296Z,23.40
2022-08-20T11:03:15.594Z,23.20
2022-08-20T11:05:43.956Z,22.90
2022-08-20T11:08:12.304Z,22.80
2022-08-20T11:10:41.326Z,22.70
2022-08-20T11:13:12.094Z,22.80
2022-08-20T11:15:43.470Z,22.80
2022-08-20T11:18:15.055Z,22.80
2022-08-20T11:20:43.367Z,22.80
2022-08-20T11:23:11.747Z,22.80
2022-08-20T11:25:40.354Z,22.80
2022-08-20T11:28:09.401Z,22.90
2022-08-20T11:30:39.527Z,23.00
2022-08-20T11:33:08.393Z,23.00
2022-08-20T11:35:49.540Z,23.20
2022-08-20T11:38:19.722Z,23.50
2022-08-20T11:40:48.858Z,23.60
2022-08-20T11:43:18.321Z,23.50
2022-08-20T11:45:50.622Z,23.80
2022-08-20T11:48:20.121Z,24.00
2022-08-20T11:50:51.184Z,23.90
2022-08-20T11:53:19.816Z,24.00
2022-08-20T11:55:50.139Z,24.10
2022-08-20T11:58:19.472Z,24.00
2022-08-20T12:00:48.473Z,23.90
2022-08-20T12:03:17.131Z,23.80
2022-08-20T12:05:47.557Z,23.70
2022-08-20T12:08:27.670Z,23.60
2022-08-20T12:10:59.419Z,23.40
2022-08-20T12:13:30.461Z,23.40
2022-08-20T12:16:00.066Z,23.30
2022-08-20T12:18:29.486Z,23.40
2022-08-20T12:20:58.655Z,23.40
2022-08-20T12:23:28.695Z,23.30
2022-08-20T12:25:57.138Z,23.10
2022-08-20T12:28:27.658Z,23.30
2022-08-20T12:30:55.999Z,23.50
2022-08-20T12:33:24.489Z,23.80
2022-08-20T12:35:53.589Z,23.70
2022-08-20T12:38:21.994Z,23.90
2022-08-20T12:40:51.654Z,24.00
2022-08-20T12:43:24.700Z,23.90
2022-08-20T12:45:53.780Z,23.80
2022-08-20T12:48:22.213Z,23.80
2022-08-20T12:50:52.637Z,23.80
2022-08-20T12:53:20.975Z,24.10
2022-08-20T12:55:51.536Z,24.30
2022-08-20T12:58:19.939Z,24.70
2022-08-20T13:00:51.187Z,24.80
2022-08-20T13:03:21.343Z,24.70
2022-08-20T13:05:50.900Z,24.40
2022-08-20T13:08:19.975Z,24.50
2022-08-20T13:10:49.229Z,24.70
2022-08-20T13:13:21.282Z,24.80
2022-08-20T13:15:51.827Z,25.30
2022-08-20T13:18:21.371Z,25.20
2022-08-20T13:20:50.634Z,25.20
2022-08-20T13:23:19.447Z,25.30
2022-08-20T13:25:47.749Z,25.50
2022-08-20T13:28:16.529Z,25.50
2022-08-20T13:30:46.207Z,25.50
2022-08-20T13:33:15.149Z,25.60
2022-08-20T13:35:43.501Z,25.90
2022-08-20T13:38:11.786Z,26.20
2022-08-20T13:40:40.494Z,25.60
2022-08-20T13:43:11.885Z,25.30
2022-08-20T13:45:42.563Z,25.30
2022-08-20T13:48:15.305Z,25.40
2022-08-20T13:50:46.862Z,25.50
2022-08-20T13:53:17.608Z,25.70
2022-08-20T13:55:47.094Z,25.70
2022-08-20T13:58:15.419Z,25.70
2022-08-20T14:00:45.019Z,25.80
2022-08-20T14:03:19.996Z,25.90
2022-08-20T14:05:54.125Z,25.90
2022-08-20T14:08:25.203Z,26.10
2022-08-20T14:10:53.537Z,26.20
2022-08-20T14:13:27.249Z,26.30
2022-08-20T14:15:56.863Z,26.20
2022-08-20T14:18:27.049Z,26.30
2022-08-20T14:20:55.386Z,26.40
2022-08-20T14:23:23.778Z,26.50
2022-08-20T14:25:52.140Z,26.60
2022-08-20T14:28:25.939Z,26.50
2022-08-20T14:30:55.363Z,26.20
2022-08-20T14:33:25.867Z,26.20
2022-08-20T14:35:54.546Z,26.20
2022-08-20T14:38:23.694Z,26.20
2022-08-20T14:40:52.327Z,26.30
2022-08-20T14:43:21.106Z,26.30
2022-08-20T14:45:49.742Z,26.10
2022-08-20T14:48:18.447Z,25.60
2022-08-20T14:50:49.552Z,25.30
2022-08-20T14:53:17.908Z,25.30
2022-08-20T14:55:46.234Z,24.80
2022-08-20T14:58:16.894Z,24.30
2022-08-20T15:00:45.443Z,24.00
2022-08-20T15:03:14.309Z,23.50
2022-08-20T15:05:44.077Z,23.10
2022-08-20T15:08:14.055Z,22.90
2022-08-20T15:10:42.623Z,22.70
2022-08-20T15:13:11.109Z,22.60
2022-08-20T15:15:40.373Z,22.50
2022-08-20T15:18:09.387Z,22.60
2022-08-20T15:20:38.453Z,22.60
2022-08-20T15:23:07.513Z,22.60
2022-08-20T15:25:38.469Z,22.70
2022-08-20T15:28:10.285Z,23.10
2022-08-20T15:30:43.651Z,22.70
2022-08-20T15:33:12.992Z,22.60
2022-08-20T15:35:41.494Z,22.60
2022-08-20T15:38:10.190Z,22.60
2022-08-20T15:40:40.975Z,22.60
2022-08-20T15:43:09.380Z,22.70
2022-08-20T15:45:37.842Z,22.70
2022-08-20T15:48:15.094Z,22.70
2022-08-20T15:51:19.679Z,22.70
2022-08-20T15:53:58.246Z,22.80
2022-08-20T15:56:42.515Z,22.90
2022-08-20T15:59:28.691Z,22.90
2022-08-20T16:02:15.786Z,22.90
2022-08-20T16:05:17.832Z,22.80
2022-08-20T16:08:00.733Z,22.60
2022-08-20T16:10:50.166Z,22.60
2022-08-20T16:13:35.715Z,22.60
2022-08-20T16:16:09.357Z,22.70
2022-08-20T16:18:42.063Z,22.70
2022-08-20T16:21:15.952Z,22.80
2022-08-20T16:23:45.678Z,22.80
2022-08-20T16:26:35.943Z,22.80
2022-08-20T16:29:12.533Z,22.80
2022-08-20T16:31:49.297Z,22.70
2022-08-20T16:34:34.518Z,22.70
2022-08-20T16:37:21.090Z,22.70
2022-08-20T16:40:04.243Z,22.60
2022-08-20T16:42:40.071Z,22.50
2022-08-20T16:45:20.520Z,22.30
2022-08-20T16:47:53.418Z,22.30
2022-08-20T16:50:26.819Z,22.20
2022-08-20T16:52:56.141Z,22.10
2022-08-20T16:55:25.876Z,22.00
2022-08-20T16:57:55.254Z,22.00
2022-08-20T17:00:34.930Z,22.00
2022-08-20T17:03:08.883Z,22.00
2022-08-20T17:05:51.080Z,21.90
2022-08-20T17:08:25.237Z,22.00
2022-08-20T17:11:00.836Z,22.00
2022-08-20T17:13:33.064Z,22.00
2022-08-20T17:16:06.749Z,22.00
2022-08-20T17:18:39.071Z,22.00
2022-08-20T17:21:16.648Z,22.00
2022-08-20T17:23:56.308Z,22.00
2022-08-20T17:26:32.628Z,22.00
2022-08-20T17:29:14.034Z,22.00
2022-08-20T17:31:48.018Z,22.00
2022-08-20T17:34:18.333Z,22.00
2022-08-20T17:36:57.372Z,22.00
2022-08-20T17:39:29.655Z,21.90
2022-08-20T17:42:08.033Z,21.80
2022-08-20T17:44:43.189Z,21.90
2022-08-20T17:47:20.646Z,21.70
2022-08-20T17:50:02.813Z,21.80
2022-08-20T17:52:39.937Z,21.90
2022-08-20T17:55:12.919Z,21.90
2022-08-20T17:57:50.113Z,22.10
2022-08-20T18:00:25.298Z,21.80
2022-08-20T18:03:02.835Z,21.80
2022-08-20T18:05:36.935Z,21.70
2022-08-20T18:08:26.086Z,21.60
2022-08-20T18:11:09.184Z,21.50
2022-08-20T18:14:06.140Z,21.50
2022-08-20T18:16:49.983Z,21.50
2022-08-20T18:20:11.254Z,21.30
2022-08-20T18:22:50.912Z,21.20
2022-08-20T18:25:32.368Z,21.20
2022-08-20T18:28:10.636Z,21.20
2022-08-20T18:30:51.147Z,21.00
2022-08-20T18:33:30.329Z,21.00
2022-08-20T18:36:13.376Z,20.90
2022-08-20T18:38:43.479Z,20.90
2022-08-20T18:41:28.570Z,20.80
2022-08-20T18:44:11.229Z,20.70
2022-08-20T18:46:54.138Z,20.70
2022-08-20T18:49:31.742Z,20.60
2022-08-20T18:52:11.923Z,20.60
2022-08-20T18:54:51.592Z,20.50
2022-08-20T18:57:25.343Z,20.50
2022-08-20T19:00:02.292Z,20.40
2022-08-20T19:02:34.661Z,20.30
2022-08-20T19:05:08.141Z,20.20
2022-08-20T19:07:48.462Z,20.20
2022-08-20T19:10:43.222Z,20.10
2022-08-20T19:13:50.142Z,20.00
2022-08-20T19:16:32.023Z,19.90
2022-08-20T19:19:00.297Z,19.90
2022-08-20T19:21:35.461Z,19.80
2022-08-20T19:24:08.591Z,19.80
2022-08-20T19:26:44.837Z,19.80
2022-08-20T19:29:20.387Z,19.70
2022-08-20T19:31:49.251Z,19.70
2022-08-20T19:34:25.758Z,19.70
2022-08-20T19:36:58.730Z,19.60
2022-08-20T19:39:36.368Z,19.50
2022-08-20T19:42:19.008Z,19.40
2022-08-20T19:44:55.734Z,19.40
2022-08-20T19:47:33.008Z,19.40
2022-08-20T19:50:16.973Z,19.30
2022-08-20T19:52:58.650Z,19.30
2022-08-20T19:55:32.741Z,19.20
2022-08-20T19:58:07.040Z,19.10
2022-08-20T20:00:42.198Z,19.10
2022-08-20T20:03:11.565Z,19.00
2022-08-20T20:05:52.262Z,19.00
2022-08-20T20:08:22.380Z,19.00
2022-08-20T20:11:00.914Z,19.10
2022-08-20T20:13:35.968Z,19.10
2022-08-20T20:16:08.761Z,19.10
2022-08-20T20:18:41.257Z,19.10
2022-08-20T20:21:18.124Z,19.20
2022-08-20T20:23:55.009Z,19.20
2022-08-20T20:26:30.287Z,19.20
2022-08-20T20:29:07.291Z,19.20
2022-08-20T20:31:48.467Z,19.20
2022-08-20T20:34:24.215Z,19.20
2022-08-20T20:37:06.787Z,19.10
2022-08-20T20:39:40.192Z,19.10
2022-08-20T20:42:13.780Z,19.10
2022-08-20T20:44:46.218Z,19.00
2022-08-20T20:47:22.925Z,18.90
2022-08-20T20:49:55.573Z,18.90
2022-08-20T20:52:28.411Z,18.80
2022-08-20T20:55:12.213Z,18.80
2022-08-20T20:57:42.695Z,18.90
2022-08-20T21:00:17.193Z,18.80
2022-08-20T21:02:46.447Z,18.80
2022-08-20T21:05:18.225Z,18.80
2022-08-20T21:07:50.345Z,18.80
2022-08-20T21:10:22.582Z,18.70
2022-08-20T21:12:53.532Z,18.70
2022-08-20T21:15:25.963Z,18.70
2022-08-20T21:17:55.507Z,18.70
2022-08-20T21:20:23.913Z,18.70
2022-08-20T21:22:52.508Z,18.70
2022-08-20T21:25:21.321Z,18.70
2022-08-20T21:27:52.982Z,18.70
2022-08-20T21:30:24.052Z,18.70
2022-08-20T21:32:53.189Z,18.80
2022-08-20T21:35:22.653Z,18.80
2022-08-20T21:37:51.388Z,18.80
2022-08-20T21:40:21.478Z,18.80
2022-08-20T21:42:52.049Z,18.80
2022-08-20T21:45:22.329Z,18.80
2022-08-20T21:47:50.637Z,18.90
2022-08-20T21:50:21.963Z,18.90
2022-08-20T21:52:55.390Z,18.80
2022-08-20T21:55:39.277Z,18.90
2022-08-20T21:58:10.268Z,18.90
2022-08-20T22:00:54.063Z,19.00
2022-08-20T22:03:25.475Z,19.00
2022-08-20T22:05:54.806Z,19.10
2022-08-20T22:08:26.048Z,19.10
2022-08-20T22:10:58.829Z,19.10
2022-08-20T22:13:32.723Z,19.10
2022-08-20T22:16:02.660Z,19.10
2022-08-20T22:18:31.945Z,19.10
2022-08-20T22:21:01.013Z,19.20
2022-08-20T22:23:29.992Z,19.20
2022-08-20T22:25:58.841Z,19.20
2022-08-20T22:28:28.943Z,19.20
2022-08-20T22:30:58.577Z,19.20
2022-08-20T22:33:26.943Z,19.20
2022-08-20T22:35:58.013Z,19.20
2022-08-20T22:38:26.804Z,19.30
2022-08-20T22:40:55.622Z,19.30
2022-08-20T22:43:24.465Z,19.30
2022-08-20T22:46:00.209Z,19.30
2022-08-20T22:48:30.175Z,19.30
2022-08-20T22:50:59.955Z,19.40
2022-08-20T22:53:29.400Z,19.40
2022-08-20T22:55:57.753Z,19.40
2022-08-20T22:58:31.060Z,19.40
2022-08-20T23:01:04.600Z,19.40
2022-08-20T23:03:39.379Z,18.40
2022-08-20T23:06:10.721Z,19.40
2022-08-20T23:08:40.702Z,19.40
2022-08-20T23:11:10.323Z,19.40
2022-08-20T23:13:39.189Z,19.30
2022-08-20T23:16:08.977Z,19.40
2022-08-20T23:18:37.428Z,19.40
2022-08-20T23:21:05.994Z,19.40
2022-08-20T23:23:34.327Z,19.40
2022-08-20T23:26:03.171Z,19.40
2022-08-20T23:28:31.559Z,19.50
2022-08-20T23:30:59.954Z,19.40
2022-08-20T23:33:31.308Z,19.60
2022-08-20T23:36:05.257Z,19.70
2022-08-20T23:38:33.584Z,19.70
2022-08-20T23:41:01.896Z,19.50
2022-08-20T23:43:30.599Z,19.50
2022-08-20T23:46:03.687Z,19.40
2022-08-20T23:48:33.853Z,19.30
2022-08-20T23:51:03.082Z,19.20
2022-08-20T23:53:31.878Z,19.20
2022-08-20T23:56:00.169Z,18.30
2022-08-20T23:58:29.025Z,19.00
